createdAt,value
2019-05-20T00:00:43.652Z,8.65
2019-05-20T00:03:15.939Z,12.55
2019-05-20T00:05:49.287Z,10.50
2019-05-20T00:08:20.990Z,11.05
2019-05-20T00:10:52.750Z,13.50
2019-05-20T00:13:24.504Z,11.55
2019-05-20T00:15:56.063Z,13.62
2019-05-20T00:18:27.831Z,10.78
2019-05-20T00:20:59.369Z,10.75
2019-05-20T00:23:31.845Z,11.20
2019-05-20T00:26:03.705Z,8.93
2019-05-20T00:28:35.366Z,13.80
2019-05-20T00:31:08.760Z,8.27
2019-05-20T00:33:40.311Z,18.87
2019-05-20T00:36:12.275Z,14.13
2019-05-20T00:38:45.365Z,13.98
2019-05-20T00:41:18.349Z,19.12
2019-05-20T00:43:50.207Z,12.60
2019-05-20T00:46:21.756Z,18.05
2019-05-20T00:48:53.519Z,13.50
2019-05-20T00:51:25.274Z,10.60
2019-05-20T00:53:57.440Z,13.62
2019-05-20T00:56:30.021Z,15.53
2019-05-20T00:59:01.835Z,18.25
2019-05-20T01:01:33.234Z,11.68
2019-05-20T01:04:04.683Z,18.50
2019-05-20T01:06:37.150Z,15.35
2019-05-20T01:09:08.905Z,24.20
2019-05-20T01:11:40.972Z,23.05
2019-05-20T01:14:12.843Z,18.67
2019-05-20T01:16:44.392Z,19.55
2019-05-20T01:19:16.157Z,19.45
2019-05-20T01:21:48.008Z,21.33
2019-05-20T01:24:19.564Z,21.33
2019-05-20T01:26:51.423Z,22.00
2019-05-20T01:29:22.974Z,25.35
2019-05-20T01:31:55.454Z,30.02
2019-05-20T01:34:27.105Z,20.57
2019-05-20T01:36:58.970Z,25.45
2019-05-20T01:39:30.623Z,25.30
2019-05-20T01:42:02.379Z,16.75
2019-05-20T01:44:33.825Z,23.52
2019-05-20T01:47:05.491Z,25.88
2019-05-20T01:49:37.247Z,22.87
2019-05-20T01:52:08.802Z,16.05
2019-05-20T01:54:40.959Z,22.25
2019-05-20T01:57:12.513Z,16.23
2019-05-20T01:59:43.864Z,22.27
2019-05-20T02:02:15.721Z,19.07
2019-05-20T02:04:47.272Z,22.45
2019-05-20T02:07:19.131Z,24.57
2019-05-20T02:09:50.585Z,22.52
2019-05-20T02:12:22.338Z,17.98
2019-05-20T02:14:58.711Z,19.55
2019-05-20T02:17:30.215Z,14.63
2019-05-20T02:20:01.925Z,17.50
2019-05-20T02:22:33.779Z,34.55
2019-05-20T02:25:05.941Z,25.00
2019-05-20T02:27:37.697Z,20.05
2019-05-20T02:30:10.084Z,24.10
2019-05-20T02:32:44.388Z,18.73
2019-05-20T02:35:16.153Z,20.85
2019-05-20T02:37:47.807Z,25.55
2019-05-20T02:40:19.454Z,31.90
2019-05-20T02:42:51.113Z,18.42
2019-05-20T02:45:22.465Z,19.10
2019-05-20T02:47:54.329Z,15.68
2019-05-20T02:50:26.008Z,17.20
2019-05-20T02:52:57.834Z,14.60
2019-05-20T02:55:29.916Z,15.98
2019-05-20T02:58:01.603Z,18.17
2019-05-20T03:00:33.329Z,20.62
2019-05-20T03:03:04.969Z,16.32
2019-05-20T03:05:36.856Z,17.48
2019-05-20T03:08:08.255Z,21.02
2019-05-20T03:10:40.142Z,25.97
2019-05-20T03:13:12.199Z,30.80
2019-05-20T03:15:44.175Z,24.65
2019-05-20T03:18:16.034Z,19.12
2019-05-20T03:20:47.791Z,23.90
2019-05-20T03:23:19.539Z,24.55
2019-05-20T03:25:51.410Z,36.77
2019-05-20T03:28:23.466Z,29.80
2019-05-20T03:30:56.296Z,28.38
2019-05-20T03:33:28.138Z,25.02
2019-05-20T03:35:59.585Z,28.50
2019-05-20T03:38:31.017Z,29.25
2019-05-20T03:41:02.670Z,28.23
2019-05-20T03:43:34.528Z,24.35
2019-05-20T03:46:06.287Z,26.45
2019-05-20T03:48:38.037Z,27.67
2019-05-20T03:51:09.484Z,19.67
2019-05-20T03:53:41.142Z,30.40
2019-05-20T03:56:13.219Z,30.80
2019-05-20T03:58:44.775Z,14.60
2019-05-20T04:01:16.495Z,21.68
2019-05-20T04:03:48.190Z,29.67
2019-05-20T04:06:20.039Z,24.95
2019-05-20T04:08:51.702Z,19.23
2019-05-20T04:11:23.468Z,21.73
2019-05-20T04:13:55.215Z,19.02
2019-05-20T04:16:27.081Z,25.90
2019-05-20T04:18:58.955Z,24.37
2019-05-20T04:21:30.583Z,22.22
2019-05-20T04:24:02.503Z,19.82
2019-05-20T04:26:34.113Z,27.27
2019-05-20T04:29:05.775Z,26.95
2019-05-20T04:31:37.409Z,25.32
2019-05-20T04:34:09.061Z,27.93
2019-05-20T04:36:40.921Z,28.38
2019-05-20T04:39:12.574Z,31.35
2019-05-20T04:41:44.448Z,27.15
2019-05-20T04:44:16.409Z,22.50
2019-05-20T04:46:47.972Z,32.85
2019-05-20T04:49:19.616Z,24.02
2019-05-20T04:51:51.982Z,35.05
2019-05-20T04:54:23.642Z,17.85
2019-05-20T04:56:55.598Z,19.98
2019-05-20T04:59:27.187Z,29.15
2019-05-20T05:01:58.706Z,26.90
2019-05-20T05:04:30.475Z,31.55
2019-05-20T05:07:03.340Z,24.60
2019-05-20T05:09:35.615Z,41.23
2019-05-20T05:12:07.178Z,20.17
2019-05-20T05:14:38.925Z,34.98
2019-05-20T05:17:10.271Z,30.10
2019-05-20T05:19:43.363Z,25.68
2019-05-20T05:22:15.130Z,31.25
2019-05-20T05:24:47.094Z,20.95
2019-05-20T05:27:19.065Z,25.17
2019-05-20T05:29:52.142Z,30.23
2019-05-20T05:32:43.009Z,26.95
2019-05-20T05:35:15.482Z,25.05
2019-05-20T05:37:47.541Z,22.87
2019-05-20T05:40:19.587Z,26.33
2019-05-20T05:42:52.851Z,42.53
2019-05-20T05:45:34.066Z,33.05
2019-05-20T05:48:05.472Z,23.07
2019-05-20T05:50:37.423Z,27.77
2019-05-20T05:53:08.891Z,18.00
2019-05-20T05:55:40.538Z,18.15
2019-05-20T05:58:14.960Z,13.13
2019-05-20T06:00:49.689Z,20.60
2019-05-20T06:03:21.442Z,22.75
2019-05-20T06:06:10.348Z,30.35
2019-05-20T06:08:27.306Z,18.70
2019-05-20T06:10:59.270Z,15.93
2019-05-20T06:13:30.824Z,38.15
2019-05-20T06:16:02.670Z,41.73
2019-05-20T06:18:34.134Z,16.05
2019-05-20T06:21:06.075Z,22.70
2019-05-20T06:23:37.955Z,28.87
2019-05-20T06:26:09.717Z,16.87
2019-05-20T06:28:41.375Z,29.12
2019-05-20T06:31:12.920Z,21.57
2019-05-20T06:33:44.798Z,22.03
2019-05-20T06:36:26.414Z,27.85
2019-05-20T06:38:51.366Z,22.67
2019-05-20T06:41:23.340Z,35.35
2019-05-20T06:43:54.775Z,22.05
2019-05-20T06:46:38.623Z,19.27
2019-05-20T06:49:10.367Z,15.38
2019-05-20T06:51:42.235Z,22.30
2019-05-20T06:54:13.789Z,17.60
2019-05-20T06:56:46.367Z,30.08
2019-05-20T06:59:18.387Z,17.52
2019-05-20T07:01:50.302Z,21.77
2019-05-20T07:04:22.427Z,27.55
2019-05-20T07:06:55.045Z,14.53
2019-05-20T07:11:58.260Z,20.62
2019-05-20T07:14:29.966Z,26.90
2019-05-20T07:17:01.670Z,25.25
2019-05-20T07:19:33.112Z,16.93
2019-05-20T07:22:04.849Z,15.15
2019-05-20T07:24:36.342Z,24.77
2019-05-20T07:27:07.880Z,24.15
2019-05-20T07:29:39.465Z,15.70
2019-05-20T07:32:10.902Z,17.02
2019-05-20T07:34:42.541Z,9.88
2019-05-20T07:37:13.887Z,11.48
2019-05-20T07:39:45.732Z,23.50
2019-05-20T07:42:17.709Z,16.20
2019-05-20T07:44:49.276Z,25.40
2019-05-20T07:47:20.813Z,26.97
2019-05-20T07:49:52.682Z,17.75
2019-05-20T07:52:25.551Z,24.23
2019-05-20T07:54:57.207Z,12.13
2019-05-20T07:57:30.079Z,14.90
2019-05-20T08:00:01.991Z,11.45
2019-05-20T08:02:39.134Z,19.75
2019-05-20T08:05:10.993Z,15.05
2019-05-20T08:07:52.093Z,18.73
2019-05-20T08:10:19.237Z,15.75
2019-05-20T08:12:50.777Z,15.75
2019-05-20T08:15:22.330Z,15.90
2019-05-20T08:17:54.446Z,8.57
2019-05-20T08:20:29.227Z,11.60
2019-05-20T08:23:01.186Z,48.53
2019-05-20T08:25:32.538Z,18.48
2019-05-20T08:28:22.466Z,25.65
2019-05-20T08:30:54.196Z,11.45
2019-05-20T08:33:25.837Z,23.07
2019-05-20T08:35:57.839Z,22.45
2019-05-20T08:38:29.748Z,14.85
2019-05-20T08:41:01.611Z,9.28
2019-05-20T08:43:33.378Z,16.77
2019-05-20T08:46:28.172Z,14.73
2019-05-20T08:48:59.929Z,12.75
2019-05-20T08:51:31.388Z,23.38
2019-05-20T08:54:19.017Z,12.35
2019-05-20T08:56:50.363Z,12.98
2019-05-20T08:59:23.653Z,8.88
2019-05-20T09:02:10.357Z,21.85
2019-05-20T09:04:42.018Z,13.95
2019-05-20T09:07:13.564Z,13.30
2019-05-20T09:09:45.507Z,9.60
2019-05-20T09:12:35.441Z,30.15
2019-05-20T09:15:09.447Z,48.80
2019-05-20T09:17:41.207Z,25.52
2019-05-20T09:20:14.097Z,9.55
2019-05-20T09:22:45.636Z,12.93
2019-05-20T09:25:19.073Z,16.05
2019-05-20T09:27:50.456Z,16.02
2019-05-20T09:30:22.769Z,7.72
2019-05-20T09:32:57.491Z,9.15
2019-05-20T09:35:33.515Z,10.38
2019-05-20T09:38:18.112Z,10.70
2019-05-20T09:40:41.774Z,18.62
2019-05-20T09:43:14.772Z,8.88
2019-05-20T09:46:07.970Z,12.93
2019-05-20T09:48:39.659Z,23.18
2019-05-20T09:51:13.971Z,27.55
2019-05-20T09:53:45.423Z,9.50
2019-05-20T09:56:17.198Z,15.25
2019-05-20T09:58:57.788Z,8.30
2019-05-20T10:01:29.595Z,15.65
2019-05-20T10:04:01.865Z,10.38
2019-05-20T10:06:33.333Z,13.18
2019-05-20T10:09:07.009Z,15.45
2019-05-20T10:11:38.683Z,23.90
2019-05-20T10:14:10.129Z,10.45
2019-05-20T10:16:41.990Z,12.85
2019-05-20T10:19:13.539Z,15.95
2019-05-20T10:21:45.096Z,22.58
2019-05-20T10:24:16.461Z,8.93
2019-05-20T10:26:48.105Z,19.87
2019-05-20T10:29:19.855Z,20.43
2019-05-20T10:31:51.815Z,12.10
2019-05-20T10:34:23.594Z,13.18
2019-05-20T10:36:55.548Z,10.13
2019-05-20T10:39:27.204Z,15.43
2019-05-20T10:42:06.124Z,11.45
2019-05-20T10:44:41.542Z,17.55
2019-05-20T10:47:30.631Z,5.80
2019-05-20T10:50:23.830Z,8.48
2019-05-20T10:52:55.299Z,10.20
2019-05-20T10:55:26.784Z,29.52
2019-05-20T10:57:58.667Z,11.45
2019-05-20T11:01:01.027Z,12.68
2019-05-20T11:05:48.175Z,38.88
2019-05-20T11:08:19.702Z,21.97
2019-05-20T11:10:51.268Z,13.83
2019-05-20T11:13:22.867Z,10.93
2019-05-20T11:15:54.470Z,8.15
2019-05-20T11:18:26.448Z,16.15
2019-05-20T11:20:57.991Z,11.30
2019-05-20T11:23:30.014Z,11.75
2019-05-20T11:26:01.520Z,13.60
2019-05-20T11:28:33.169Z,8.75
2019-05-20T11:31:04.808Z,7.50
2019-05-20T11:33:36.493Z,13.18
2019-05-20T11:36:08.958Z,9.43
2019-05-20T11:38:40.801Z,15.98
2019-05-20T11:41:12.782Z,22.02
2019-05-20T11:43:44.312Z,10.93
2019-05-20T11:46:16.311Z,14.68
2019-05-20T11:48:47.937Z,13.48
2019-05-20T11:51:21.553Z,11.28
2019-05-20T11:53:53.305Z,9.98
2019-05-20T11:56:25.405Z,11.73
2019-05-20T11:58:57.287Z,25.77
2019-05-20T12:01:29.919Z,15.35
2019-05-20T12:04:03.414Z,16.77
2019-05-20T12:06:38.334Z,12.95
2019-05-20T12:11:41.268Z,12.25
2019-05-20T12:14:24.678Z,29.40
2019-05-20T12:16:56.578Z,14.98
2019-05-20T12:19:28.714Z,21.00
2019-05-20T12:22:00.796Z,19.47
2019-05-20T12:24:32.616Z,17.25
2019-05-20T12:27:04.374Z,14.53
2019-05-20T12:29:36.258Z,24.47
2019-05-20T12:32:08.820Z,12.85
2019-05-20T12:34:40.906Z,15.75
2019-05-20T12:37:13.148Z,10.03
2019-05-20T12:39:44.809Z,16.52
2019-05-20T12:42:16.484Z,7.40
2019-05-20T12:44:48.325Z,8.13
2019-05-20T12:47:19.884Z,12.90
2019-05-20T12:49:58.298Z,12.88
2019-05-20T12:52:30.070Z,7.92
2019-05-20T12:55:07.960Z,20.80
2019-05-20T12:57:41.441Z,24.57
2019-05-20T13:00:26.290Z,12.00
2019-05-20T13:02:59.579Z,18.25
2019-05-20T13:05:33.455Z,17.82
2019-05-20T13:08:05.911Z,32.63
2019-05-20T13:10:39.078Z,8.65
2019-05-20T13:13:10.542Z,12.98
2019-05-20T13:15:42.822Z,10.13
2019-05-20T13:18:14.462Z,10.00
2019-05-20T13:20:46.678Z,4.83
2019-05-20T13:23:23.185Z,5.33
2019-05-20T13:25:55.727Z,14.18
2019-05-20T13:28:27.438Z,22.13
2019-05-20T13:30:59.343Z,17.17
2019-05-20T13:33:30.962Z,5.20
2019-05-20T13:36:02.921Z,10.00
2019-05-20T13:38:34.493Z,8.60
2019-05-20T13:41:07.605Z,8.13
2019-05-20T13:43:39.214Z,8.08
2019-05-20T13:46:10.975Z,12.73
2019-05-20T13:48:42.991Z,14.00
2019-05-20T13:51:15.002Z,8.70
2019-05-20T13:53:47.462Z,15.98
2019-05-20T13:56:19.548Z,7.75
2019-05-20T13:59:10.366Z,14.35
2019-05-20T14:01:42.189Z,7.80
2019-05-20T14:04:13.851Z,16.93
2019-05-20T14:06:46.208Z,15.28
2019-05-20T14:09:19.058Z,15.08
2019-05-20T14:11:55.396Z,5.05
2019-05-20T14:14:26.817Z,13.78
2019-05-20T14:16:58.778Z,14.03
2019-05-20T14:19:30.674Z,19.02
2019-05-20T14:22:20.671Z,11.88
2019-05-20T14:24:52.271Z,8.45
2019-05-20T14:27:23.967Z,11.68
2019-05-20T14:29:55.697Z,19.73
2019-05-20T14:32:27.650Z,7.37
2019-05-20T14:35:18.662Z,12.50
2019-05-20T14:37:50.416Z,14.23
2019-05-20T14:40:22.382Z,13.93
2019-05-20T14:42:54.141Z,13.43
2019-05-20T14:45:25.783Z,5.92
2019-05-20T14:47:57.660Z,10.48
2019-05-20T14:50:31.091Z,11.88
2019-05-20T14:53:03.113Z,16.70
2019-05-20T14:55:42.117Z,10.65
2019-05-20T14:58:10.134Z,20.45
2019-05-20T15:00:41.969Z,20.15
2019-05-20T15:03:34.941Z,23.07
2019-05-20T15:06:06.673Z,21.52
2019-05-20T15:08:57.004Z,12.90
2019-05-20T15:11:38.042Z,14.83
2019-05-20T15:14:03.922Z,10.08
2019-05-20T15:16:35.725Z,15.40
2019-05-20T15:19:07.974Z,16.02
2019-05-20T15:21:39.915Z,9.13
2019-05-20T15:24:30.401Z,16.35
2019-05-20T15:27:02.606Z,11.00
2019-05-20T15:29:34.629Z,22.37
2019-05-20T15:32:06.848Z,10.90
2019-05-20T15:34:39.067Z,11.88
2019-05-20T15:37:11.693Z,11.45
2019-05-20T15:39:47.420Z,15.38
2019-05-20T15:44:52.572Z,14.70
2019-05-20T15:47:24.442Z,21.85
2019-05-20T15:49:59.578Z,20.02
2019-05-20T15:52:32.929Z,12.95
2019-05-20T15:55:06.772Z,18.15
2019-05-20T15:57:41.324Z,19.07
2019-05-20T16:02:55.482Z,17.85
2019-05-20T16:05:28.762Z,35.00
2019-05-20T16:08:23.166Z,30.17
2019-05-20T16:10:59.952Z,22.73
2019-05-20T16:13:32.317Z,20.82
2019-05-20T16:16:04.298Z,18.60
2019-05-20T16:18:54.398Z,24.30
2019-05-20T16:21:26.259Z,22.77
2019-05-20T16:23:57.972Z,18.37
2019-05-20T16:26:30.231Z,17.42
2019-05-20T16:29:04.900Z,15.85
2019-05-20T16:31:36.969Z,16.95
2019-05-20T16:34:12.533Z,17.17
2019-05-20T16:36:44.465Z,17.30
2019-05-20T16:39:23.435Z,19.95
2019-05-20T16:41:55.652Z,16.02
2019-05-20T16:44:30.178Z,16.87
2019-05-20T16:47:06.343Z,16.00
2019-05-20T16:49:38.112Z,22.80
2019-05-20T16:52:10.249Z,12.45
2019-05-20T16:54:42.050Z,20.75
2019-05-20T16:57:14.232Z,15.10
2019-05-20T16:59:46.493Z,12.55
2019-05-20T17:02:20.603Z,30.08
2019-05-20T17:04:54.267Z,20.68
2019-05-20T17:07:26.286Z,24.43
2019-05-20T17:09:58.368Z,23.60
2019-05-20T17:12:45.861Z,23.92
2019-05-20T17:15:18.021Z,23.42
2019-05-20T17:17:50.348Z,27.42
2019-05-20T17:20:22.030Z,24.27
2019-05-20T17:23:01.887Z,16.82
2019-05-20T17:25:37.906Z,15.50
2019-05-20T17:28:09.814Z,23.50
2019-05-20T17:30:45.315Z,34.30
2019-05-20T17:33:17.269Z,29.98
2019-05-20T17:35:49.183Z,20.82
2019-05-20T17:41:05.680Z,23.62
2019-05-20T17:43:38.450Z,25.40
2019-05-20T17:46:32.660Z,24.40
2019-05-20T17:49:04.738Z,23.57
2019-05-20T17:51:38.644Z,23.25
2019-05-20T17:54:10.805Z,14.00
2019-05-20T17:56:56.903Z,27.48
2019-05-20T17:59:28.983Z,15.93
2019-05-20T18:02:07.825Z,23.85
2019-05-20T18:04:39.600Z,23.77
2019-05-20T18:07:11.426Z,23.18
2019-05-20T18:09:48.461Z,34.60
2019-05-20T18:12:21.050Z,41.58
2019-05-20T18:14:54.028Z,39.70
2019-05-20T18:17:26.230Z,38.80
2019-05-20T18:19:58.330Z,52.13
2019-05-20T18:22:51.463Z,33.93
2019-05-20T18:25:24.623Z,33.45
2019-05-20T18:28:02.151Z,48.58
2019-05-20T18:30:34.819Z,33.05
2019-05-20T18:33:07.647Z,26.90
2019-05-20T18:35:41.404Z,19.60
2019-05-20T18:38:14.250Z,31.55
2019-05-20T18:40:46.874Z,31.30
2019-05-20T18:43:18.593Z,30.12
2019-05-20T18:48:33.561Z,20.27
2019-05-20T18:51:05.913Z,35.70
2019-05-20T18:53:38.572Z,28.73
2019-05-20T18:56:10.908Z,40.58
2019-05-20T18:58:44.515Z,35.50
2019-05-20T19:01:19.439Z,45.20
2019-05-20T19:03:57.447Z,38.75
2019-05-20T19:06:34.482Z,35.20
2019-05-20T19:09:07.378Z,26.12
2019-05-20T19:11:39.565Z,43.28
2019-05-20T19:14:22.806Z,43.63
2019-05-20T19:16:57.069Z,64.30
2019-05-20T19:19:30.497Z,54.98
2019-05-20T19:22:03.750Z,40.23
2019-05-20T19:28:16.006Z,60.55
2019-05-20T19:30:47.685Z,37.78
2019-05-20T19:33:23.014Z,29.15
2019-05-20T19:35:54.838Z,27.70
2019-05-20T19:38:35.039Z,25.72
2019-05-20T19:44:02.613Z,23.75
2019-05-20T19:46:35.947Z,20.50
2019-05-20T19:49:08.255Z,17.07
2019-05-20T19:51:39.837Z,28.38
2019-05-20T19:54:27.488Z,17.92
2019-05-20T19:56:59.098Z,12.73
2019-05-20T19:59:30.784Z,13.05
2019-05-20T20:02:16.375Z,13.53
2019-05-20T20:04:44.699Z,10.90
2019-05-20T20:07:17.411Z,14.00
2019-05-20T20:09:49.753Z,11.20
2019-05-20T20:12:21.481Z,9.03
2019-05-20T20:14:53.768Z,14.03
2019-05-20T20:17:26.426Z,11.93
2019-05-20T20:19:58.626Z,9.38
2019-05-20T20:22:30.380Z,9.98
2019-05-20T20:25:02.005Z,9.60
2019-05-20T20:27:33.933Z,8.75
2019-05-20T20:30:09.168Z,14.83
2019-05-20T20:32:40.725Z,8.00
2019-05-20T20:35:12.284Z,11.05
2019-05-20T20:37:44.034Z,13.83
2019-05-20T20:40:15.589Z,9.90
2019-05-20T20:42:47.255Z,8.65
2019-05-20T20:45:19.117Z,11.75
2019-05-20T20:47:50.889Z,14.33
2019-05-20T20:50:23.116Z,14.50
2019-05-20T20:52:55.803Z,7.95
2019-05-20T20:55:27.214Z,12.65
2019-05-20T20:57:58.733Z,20.57
2019-05-20T21:00:30.382Z,12.18
2019-05-20T21:03:01.817Z,12.45
2019-05-20T21:05:33.913Z,8.53
2019-05-20T21:08:05.447Z,6.42
2019-05-20T21:10:37.091Z,13.53
2019-05-20T21:13:08.897Z,16.32
2019-05-20T21:15:40.695Z,7.28
2019-05-20T21:18:12.141Z,7.42
2019-05-20T21:20:45.335Z,15.43
2019-05-20T21:23:16.891Z,8.73
2019-05-20T21:25:48.656Z,8.53
2019-05-20T21:28:20.117Z,9.78
2019-05-20T21:30:51.758Z,13.68
2019-05-20T21:33:23.721Z,8.68
2019-05-20T21:35:56.517Z,11.50
2019-05-20T21:38:29.591Z,12.15
2019-05-20T21:41:01.349Z,6.95
2019-05-20T21:43:33.936Z,18.10
2019-05-20T21:46:05.585Z,11.18
2019-05-20T21:48:37.338Z,14.65
2019-05-20T21:51:09.199Z,13.60
2019-05-20T21:53:41.253Z,17.70
2019-05-20T21:56:13.526Z,12.68
2019-05-20T21:58:45.095Z,13.35
2019-05-20T22:01:18.298Z,12.88
2019-05-20T22:03:52.279Z,7.45
2019-05-20T22:06:24.035Z,12.53
2019-05-20T22:08:55.807Z,13.40
2019-05-20T22:11:27.549Z,13.95
2019-05-20T22:13:59.315Z,10.40
2019-05-20T22:16:31.179Z,12.88
2019-05-20T22:19:02.542Z,18.12
2019-05-20T22:21:36.125Z,18.70
2019-05-20T22:24:08.704Z,12.65
2019-05-20T22:26:40.253Z,14.73
2019-05-20T22:29:11.899Z,17.30
2019-05-20T22:31:43.461Z,17.23
2019-05-20T22:34:15.624Z,12.45
2019-05-20T22:36:47.694Z,17.17
2019-05-20T22:39:19.552Z,14.95
2019-05-20T22:41:52.026Z,9.93
2019-05-20T22:44:23.373Z,16.75
2019-05-20T22:46:55.137Z,12.98
2019-05-20T22:49:26.578Z,11.93
2019-05-20T22:51:58.544Z,17.62
2019-05-20T22:54:30.408Z,17.12
2019-05-20T22:57:01.960Z,10.93
2019-05-20T22:59:33.817Z,13.65
2019-05-20T23:02:05.793Z,13.40
2019-05-20T23:04:37.334Z,15.65
2019-05-20T23:07:09.295Z,16.00
2019-05-20T23:09:40.845Z,13.75
2019-05-20T23:12:12.705Z,16.37
2019-05-20T23:14:44.567Z,20.68
2019-05-20T23:17:16.326Z,17.75
2019-05-20T23:19:48.921Z,12.97
2019-05-20T23:22:21.171Z,18.05
2019-05-20T23:24:52.519Z,9.45
2019-05-20T23:27:24.079Z,15.23
2019-05-20T23:29:55.730Z,11.93
2019-05-20T23:32:27.276Z,11.38
2019-05-20T23:34:58.929Z,15.18
2019-05-20T23:37:30.939Z,11.20
2019-05-20T23:40:02.655Z,18.35
2019-05-20T23:42:34.514Z,13.72
2019-05-20T23:45:08.830Z,19.48
2019-05-20T23:47:40.695Z,17.55
2019-05-20T23:50:12.350Z,12.07
2019-05-20T23:52:44.519Z,10.15
2019-05-20T23:55:16.372Z,13.03
2019-05-20T23:57:48.127Z,10.40
